createdAt,value
2023-05-06T00:01:02.397Z,4.70
2023-05-06T00:03:06.998Z,4.75
2023-05-06T00:05:11.832Z,4.97
2023-05-06T00:07:16.981Z,5.00
2023-05-06T00:09:21.382Z,3.15
2023-05-06T00:11:26.449Z,5.03
2023-05-06T00:13:27.900Z,4.47
2023-05-06T00:17:33.952Z,4.55
2023-05-06T00:19:38.754Z,3.95
2023-05-06T00:21:40.245Z,4.32
2023-05-06T00:24:00.160Z,4.50
2023-05-06T00:26:01.644Z,4.22
2023-05-06T00:30:25.921Z,3.08
2023-05-06T00:32:27.418Z,4.13
2023-05-06T00:34:28.927Z,3.88
2023-05-06T00:36:31.634Z,3.45
2023-05-06T00:38:33.103Z,3.15
2023-05-06T00:40:34.558Z,3.63
2023-05-06T00:44:42.935Z,3.35
2023-05-06T00:46:47.326Z,5.20
2023-05-06T00:48:48.842Z,2.70
2023-05-06T00:52:54.729Z,3.45
2023-05-06T00:54:59.104Z,4.03
2023-05-06T00:57:01.374Z,4.20
2023-05-06T00:59:05.696Z,3.03
2023-05-06T01:01:08.341Z,3.78
2023-05-06T01:03:13.185Z,2.95
2023-05-06T01:05:18.195Z,3.00
2023-05-06T01:07:22.454Z,3.75
2023-05-06T01:09:39.307Z,3.15
2023-05-06T01:12:06.356Z,3.25
2023-05-06T01:14:14.142Z,2.55
2023-05-06T01:16:18.156Z,2.60
2023-05-06T01:18:25.551Z,2.78
2023-05-06T01:20:30.856Z,3.78
2023-05-06T01:22:34.221Z,3.00
2023-05-06T01:24:39.633Z,4.20
2023-05-06T01:26:42.950Z,3.53
2023-05-06T01:28:44.446Z,3.58
2023-05-06T01:30:45.935Z,4.32
2023-05-06T01:37:14.385Z,4.35
2023-05-06T01:39:24.582Z,3.72
2023-05-06T01:41:27.322Z,3.75
2023-05-06T01:43:34.870Z,5.75
2023-05-06T01:45:36.802Z,4.15
2023-05-06T01:47:38.380Z,3.75
2023-05-06T01:49:42.904Z,3.95
2023-05-06T01:51:47.919Z,4.00
2023-05-06T01:53:53.755Z,3.63
2023-05-06T01:55:55.705Z,3.35
2023-05-06T01:57:59.978Z,5.18
2023-05-06T02:00:02.537Z,3.88
2023-05-06T02:02:07.054Z,3.20
2023-05-06T02:04:08.744Z,4.32
2023-05-06T02:06:10.771Z,4.35
2023-05-06T02:08:16.816Z,4.00
2023-05-06T02:10:22.774Z,3.67
2023-05-06T02:12:44.127Z,5.05
2023-05-06T02:14:47.626Z,4.13
2023-05-06T02:16:51.430Z,4.30
2023-05-06T02:18:55.562Z,4.50
2023-05-06T02:21:02.089Z,4.68
2023-05-06T02:23:07.463Z,3.72
2023-05-06T02:25:09.558Z,4.70
2023-05-06T02:27:11.183Z,4.03
2023-05-06T02:29:12.640Z,5.53
2023-05-06T02:31:17.463Z,4.10
2023-05-06T02:33:22.035Z,3.55
2023-05-06T02:35:26.794Z,5.55
2023-05-06T02:37:29.867Z,4.38
2023-05-06T02:39:32.757Z,4.53
2023-05-06T02:41:37.906Z,5.55
2023-05-06T02:43:42.368Z,4.95
2023-05-06T02:45:46.735Z,4.60
2023-05-06T02:47:48.304Z,4.35
2023-05-06T02:51:53.634Z,4.10
2023-05-06T02:53:57.739Z,5.70
2023-05-06T02:55:59.360Z,6.15
2023-05-06T02:58:19.313Z,6.55
2023-05-06T03:00:23.588Z,5.18
2023-05-06T03:02:26.763Z,4.63
2023-05-06T03:04:28.956Z,4.32
2023-05-06T03:06:31.596Z,5.05
2023-05-06T03:08:35.648Z,5.40
2023-05-06T03:10:41.786Z,5.82
2023-05-06T03:13:03.281Z,5.68
2023-05-06T03:15:08.444Z,4.45
2023-05-06T03:17:14.211Z,4.43
2023-05-06T03:19:17.589Z,6.25
2023-05-06T03:21:19.434Z,6.00
2023-05-06T03:23:24.586Z,4.75
2023-05-06T03:25:26.150Z,4.72
2023-05-06T03:27:46.009Z,5.18
2023-05-06T03:30:06.487Z,5.60
2023-05-06T03:32:10.533Z,5.75
2023-05-06T03:34:13.037Z,6.68
2023-05-06T03:36:17.517Z,7.05
2023-05-06T03:38:26.517Z,6.28
2023-05-06T03:40:30.184Z,5.78
2023-05-06T03:42:50.279Z,6.63
2023-05-06T03:45:12.263Z,7.18
2023-05-06T03:47:17.289Z,6.18
2023-05-06T03:49:20.583Z,6.63
2023-05-06T03:51:25.164Z,6.85
2023-05-06T03:53:30.145Z,5.82
2023-05-06T03:55:31.973Z,7.07
2023-05-06T03:57:36.366Z,6.57
2023-05-06T03:59:40.606Z,7.45
2023-05-06T04:03:50.135Z,7.40
2023-05-06T04:05:52.280Z,6.43
2023-05-06T04:07:55.230Z,6.18
2023-05-06T04:09:58.196Z,6.30
2023-05-06T04:12:00.509Z,6.87
2023-05-06T04:14:02.651Z,6.38
2023-05-06T04:16:08.264Z,5.82
2023-05-06T04:18:11.317Z,7.40
2023-05-06T04:20:15.339Z,6.82
2023-05-06T04:22:18.993Z,6.43
2023-05-06T04:24:24.299Z,7.22
2023-05-06T04:26:30.779Z,7.00
2023-05-06T04:28:52.897Z,7.00
2023-05-06T04:31:14.589Z,6.75
2023-05-06T04:33:35.746Z,7.35
2023-05-06T04:35:37.500Z,6.32
2023-05-06T04:37:40.127Z,7.78
2023-05-06T04:39:47.504Z,5.93
2023-05-06T04:41:51.740Z,6.82
2023-05-06T04:43:53.180Z,6.22
2023-05-06T04:45:58.041Z,7.03
2023-05-06T04:48:00.220Z,9.45
2023-05-06T04:50:08.718Z,7.35
2023-05-06T04:52:10.269Z,6.70
2023-05-06T04:54:13.330Z,7.88
2023-05-06T04:56:15.541Z,7.40
2023-05-06T04:58:19.620Z,8.38
2023-05-06T05:00:22.288Z,8.07
2023-05-06T05:02:26.582Z,7.90
2023-05-06T05:04:46.720Z,7.38
2023-05-06T05:07:07.561Z,7.05
2023-05-06T05:09:10.662Z,7.63
2023-05-06T05:11:15.285Z,7.40
2023-05-06T05:13:19.551Z,8.43
2023-05-06T05:15:21.362Z,7.20
2023-05-06T05:17:22.986Z,7.68
2023-05-06T05:19:42.912Z,7.70
2023-05-06T05:21:44.656Z,9.65
2023-05-06T05:23:48.987Z,8.13
2023-05-06T05:25:53.383Z,8.70
2023-05-06T05:27:54.972Z,7.47
2023-05-06T05:29:56.775Z,7.22
2023-05-06T05:32:01.043Z,7.18
2023-05-06T05:34:02.778Z,8.30
2023-05-06T05:36:04.742Z,6.43
2023-05-06T05:38:06.265Z,6.40
2023-05-06T05:40:10.684Z,5.25
2023-05-06T05:42:12.212Z,5.07
2023-05-06T05:44:13.682Z,5.97
2023-05-06T05:46:33.702Z,5.70
2023-05-06T05:48:35.285Z,4.20
2023-05-06T05:50:39.355Z,4.90
2023-05-06T05:52:59.445Z,5.82
2023-05-06T05:55:00.904Z,6.47
2023-05-06T05:57:02.481Z,7.32
2023-05-06T05:59:03.996Z,7.88
2023-05-06T06:01:08.333Z,5.25
2023-05-06T06:03:12.996Z,5.72
2023-05-06T06:05:14.555Z,4.63
2023-05-06T06:07:18.895Z,5.35
2023-05-06T06:09:23.188Z,5.72
2023-05-06T06:11:28.507Z,5.63
2023-05-06T06:13:48.634Z,4.70
2023-05-06T06:15:50.411Z,5.05
2023-05-06T06:17:55.100Z,4.90
2023-05-06T06:19:58.295Z,6.03
2023-05-06T06:21:59.890Z,7.13
2023-05-06T06:24:20.064Z,4.47
2023-05-06T06:26:24.152Z,5.90
2023-05-06T06:28:28.540Z,4.60
2023-05-06T06:30:33.104Z,5.95
2023-05-06T06:32:34.797Z,4.47
2023-05-06T06:34:36.466Z,5.13
2023-05-06T06:36:45.109Z,4.20
2023-05-06T06:38:49.358Z,4.55
2023-05-06T06:41:09.381Z,5.28
2023-05-06T06:43:10.887Z,4.90
2023-05-06T06:45:15.544Z,5.78
2023-05-06T06:47:19.585Z,4.32
2023-05-06T06:49:21.026Z,4.70
2023-05-06T06:51:25.743Z,3.83
2023-05-06T06:53:30.087Z,5.05
2023-05-06T06:55:50.295Z,5.28
2023-05-06T06:57:54.359Z,4.03
2023-05-06T07:00:14.746Z,5.28
2023-05-06T07:02:22.020Z,4.60
2023-05-06T07:04:42.297Z,4.82
2023-05-06T07:06:43.844Z,5.93
2023-05-06T07:08:45.288Z,5.30
2023-05-06T07:10:49.565Z,4.15
2023-05-06T07:12:51.018Z,4.22
2023-05-06T07:14:52.514Z,4.88
2023-05-06T07:16:56.926Z,4.63
2023-05-06T07:19:01.429Z,5.28
2023-05-06T07:21:02.870Z,5.18
2023-05-06T07:23:04.428Z,5.03
2023-05-06T07:25:09.153Z,5.45
2023-05-06T07:27:30.831Z,6.10
2023-05-06T07:29:32.477Z,4.60
2023-05-06T07:31:34.135Z,4.78
2023-05-06T07:33:35.811Z,4.68
2023-05-06T07:35:37.557Z,5.15
2023-05-06T07:37:41.634Z,5.75
2023-05-06T07:39:43.212Z,4.40
2023-05-06T07:41:47.230Z,4.05
2023-05-06T07:43:51.657Z,4.68
2023-05-06T07:46:11.837Z,4.15
2023-05-06T07:48:13.501Z,4.05
2023-05-06T07:50:15.103Z,3.92
2023-05-06T07:52:19.571Z,4.03
2023-05-06T07:54:21.072Z,3.35
2023-05-06T07:56:22.538Z,2.92
2023-05-06T07:58:28.408Z,4.25
2023-05-06T08:00:29.994Z,2.53
2023-05-06T08:02:32.196Z,2.38
2023-05-06T08:04:36.980Z,3.05
2023-05-06T08:06:38.602Z,2.08
2023-05-06T08:08:44.942Z,2.30
2023-05-06T08:10:51.429Z,2.33
2023-05-06T08:13:01.871Z,2.13
2023-05-06T08:15:19.953Z,2.30
2023-05-06T08:17:48.590Z,2.47
2023-05-06T08:20:05.333Z,2.63
2023-05-06T08:22:20.436Z,1.95
2023-05-06T08:24:38.466Z,1.98
2023-05-06T08:27:00.723Z,2.40
2023-05-06T08:29:19.220Z,1.95
2023-05-06T08:31:50.311Z,1.80
2023-05-06T08:34:05.128Z,2.08
2023-05-06T08:36:17.471Z,2.05
2023-05-06T08:38:31.097Z,1.90
2023-05-06T08:40:56.563Z,1.70
2023-05-06T08:43:09.759Z,2.28
2023-05-06T08:45:12.949Z,2.80
2023-05-06T08:47:17.616Z,2.35
2023-05-06T08:49:22.120Z,2.70
2023-05-06T08:51:28.202Z,2.42
2023-05-06T08:53:33.314Z,2.97
2023-05-06T08:55:38.481Z,2.22
2023-05-06T08:57:42.782Z,2.97
2023-05-06T08:59:45.066Z,3.15
2023-05-06T09:01:46.580Z,2.58
2023-05-06T09:03:48.057Z,3.25
2023-05-06T09:05:52.010Z,2.60
2023-05-06T09:07:53.444Z,4.00
2023-05-06T09:09:55.186Z,3.03
2023-05-06T09:12:02.194Z,2.78
2023-05-06T09:14:22.145Z,2.70
2023-05-06T09:16:30.226Z,2.47
2023-05-06T09:18:37.262Z,2.75
2023-05-06T09:20:44.800Z,2.50
2023-05-06T09:22:46.288Z,1.73
2023-05-06T09:24:57.151Z,2.78
2023-05-06T09:27:01.769Z,2.70
2023-05-06T09:29:06.344Z,2.50
2023-05-06T09:31:26.617Z,3.00
2023-05-06T09:33:30.775Z,2.50
2023-05-06T09:35:42.741Z,3.03
2023-05-06T09:37:47.297Z,2.53
2023-05-06T09:40:09.333Z,2.30
2023-05-06T09:42:11.338Z,2.30
2023-05-06T09:44:15.812Z,2.33
2023-05-06T09:46:23.438Z,2.15
2023-05-06T09:48:28.570Z,2.20
2023-05-06T09:50:33.400Z,2.53
2023-05-06T09:52:37.980Z,2.63
2023-05-06T09:54:42.591Z,2.03
2023-05-06T09:56:44.254Z,2.47
2023-05-06T09:58:50.032Z,2.50
2023-05-06T10:00:54.710Z,2.78
2023-05-06T10:02:57.015Z,2.15
2023-05-06T10:04:59.541Z,2.85
2023-05-06T10:07:04.423Z,2.30
2023-05-06T10:09:09.378Z,2.42
2023-05-06T10:11:11.348Z,2.58
2023-05-06T10:13:22.643Z,2.58
2023-05-06T10:15:24.943Z,2.45
2023-05-06T10:17:31.214Z,3.80
2023-05-06T10:19:37.620Z,2.33
2023-05-06T10:22:02.489Z,2.53
2023-05-06T10:24:29.528Z,2.60
2023-05-06T10:26:31.669Z,2.50
2023-05-06T10:28:36.098Z,2.53
2023-05-06T10:30:41.135Z,2.00
2023-05-06T10:32:43.404Z,2.75
2023-05-06T10:34:47.496Z,1.85
2023-05-06T10:38:57.126Z,2.30
2023-05-06T10:40:59.175Z,2.47
2023-05-06T10:43:21.632Z,3.78
2023-05-06T10:45:28.937Z,2.85
2023-05-06T10:47:49.530Z,2.83
2023-05-06T10:50:10.598Z,2.50
2023-05-06T10:52:13.179Z,2.78
2023-05-06T10:54:20.175Z,2.47
2023-05-06T10:57:00.205Z,2.70
2023-05-06T10:59:10.489Z,2.53
2023-05-06T11:01:14.155Z,2.90
2023-05-06T11:03:18.733Z,2.95
2023-05-06T11:05:23.883Z,3.55
2023-05-06T11:07:28.001Z,4.20
2023-05-06T11:09:29.470Z,3.60
2023-05-06T11:11:48.865Z,3.97
2023-05-06T11:13:52.456Z,4.30
2023-05-06T11:15:59.531Z,4.72
2023-05-06T11:18:23.697Z,4.72
2023-05-06T11:20:27.919Z,4.50
2023-05-06T11:22:42.162Z,5.18
2023-05-06T11:24:45.972Z,6.22
2023-05-06T11:26:52.554Z,6.78
2023-05-06T11:29:03.385Z,6.88
2023-05-06T11:31:07.145Z,6.50
2023-05-06T11:33:15.515Z,7.75
2023-05-06T11:35:24.012Z,7.95
2023-05-06T11:37:28.473Z,8.52
2023-05-06T11:39:40.584Z,8.07
2023-05-06T11:42:07.918Z,7.95
2023-05-06T11:44:13.870Z,8.82
2023-05-06T11:46:19.111Z,10.70
2023-05-06T11:48:20.728Z,9.70
2023-05-06T11:50:25.022Z,8.60
2023-05-06T11:52:26.594Z,10.57
2023-05-06T11:54:28.205Z,9.85
2023-05-06T11:56:29.930Z,10.07
2023-05-06T11:58:34.037Z,10.50
2023-05-06T12:00:35.564Z,10.20
2023-05-06T12:02:40.995Z,10.60
2023-05-06T12:04:46.372Z,10.88
2023-05-06T12:06:47.883Z,10.02
2023-05-06T12:08:49.446Z,11.23
2023-05-06T12:10:59.351Z,11.10
2023-05-06T12:13:20.088Z,10.70
2023-05-06T12:15:21.622Z,10.25
2023-05-06T12:17:23.198Z,9.02
2023-05-06T12:19:28.494Z,12.02
2023-05-06T12:21:33.105Z,10.80
2023-05-06T12:23:34.615Z,11.00
2023-05-06T12:25:39.886Z,8.18
2023-05-06T12:27:44.302Z,9.75
2023-05-06T12:29:52.329Z,9.60
2023-05-06T12:32:07.580Z,9.48
2023-05-06T12:34:35.907Z,7.80
2023-05-06T12:36:44.296Z,9.32
2023-05-06T12:38:58.928Z,9.70
2023-05-06T12:41:04.419Z,9.75
2023-05-06T12:43:06.221Z,11.32
2023-05-06T12:45:15.111Z,9.15
2023-05-06T12:47:23.923Z,11.02
2023-05-06T12:49:25.858Z,9.63
2023-05-06T12:51:27.765Z,11.35
2023-05-06T12:53:47.991Z,10.00
2023-05-06T12:55:49.449Z,10.65
2023-05-06T12:57:52.132Z,11.20
2023-05-06T12:59:56.606Z,11.20
2023-05-06T13:02:01.272Z,10.85
2023-05-06T13:04:05.589Z,11.95
2023-05-06T13:06:07.233Z,9.73
2023-05-06T13:08:11.728Z,9.52
2023-05-06T13:10:19.158Z,10.88
2023-05-06T13:12:39.260Z,9.27
2023-05-06T13:14:43.408Z,9.48
2023-05-06T13:16:48.502Z,9.27
2023-05-06T13:18:52.785Z,9.77
2023-05-06T13:20:57.045Z,10.63
2023-05-06T13:22:58.521Z,8.68
2023-05-06T13:25:18.393Z,10.23
2023-05-06T13:29:26.789Z,10.32
2023-05-06T13:31:28.865Z,10.35
2023-05-06T13:33:34.232Z,9.82
2023-05-06T13:35:54.534Z,10.70
2023-05-06T13:37:58.882Z,10.80
2023-05-06T13:40:00.464Z,10.40
2023-05-06T13:42:07.427Z,10.05
2023-05-06T13:44:10.392Z,10.82
2023-05-06T13:46:12.021Z,8.90
2023-05-06T13:48:14.120Z,8.13
2023-05-06T13:50:18.394Z,9.68
2023-05-06T13:52:22.684Z,8.90
2023-05-06T13:54:24.464Z,8.75
2023-05-06T13:56:25.983Z,8.70
2023-05-06T13:58:31.065Z,8.27
2023-05-06T14:00:51.149Z,7.53
2023-05-06T14:02:52.734Z,6.63
2023-05-06T14:04:55.192Z,6.57
2023-05-06T14:06:59.472Z,5.75
2023-05-06T14:09:00.912Z,5.88
2023-05-06T14:11:21.215Z,6.05
2023-05-06T14:13:22.765Z,6.22
2023-05-06T14:15:27.170Z,6.07
2023-05-06T14:17:28.725Z,6.10
2023-05-06T14:19:30.224Z,7.32
2023-05-06T14:21:36.414Z,5.97
2023-05-06T14:23:45.193Z,6.07
2023-05-06T14:26:05.540Z,6.45
2023-05-06T14:28:13.443Z,6.32
2023-05-06T14:30:34.441Z,7.70
2023-05-06T14:32:36.341Z,6.25
2023-05-06T14:34:38.021Z,7.15
2023-05-06T14:36:42.928Z,8.48
2023-05-06T14:38:44.432Z,7.65
2023-05-06T14:40:46.213Z,8.75
2023-05-06T14:42:49.581Z,8.98
2023-05-06T14:45:10.264Z,8.07
2023-05-06T14:47:15.004Z,9.38
2023-05-06T14:49:16.533Z,11.75
2023-05-06T14:51:36.321Z,11.73
2023-05-06T14:53:37.800Z,10.63
2023-05-06T14:55:40.832Z,10.10
2023-05-06T14:57:42.285Z,10.52
2023-05-06T14:59:46.681Z,10.07
2023-05-06T15:01:48.439Z,10.05
2023-05-06T15:03:51.254Z,10.60
2023-05-06T15:05:52.783Z,9.88
2023-05-06T15:07:54.435Z,10.10
2023-05-06T15:09:56.878Z,10.20
2023-05-06T15:11:58.551Z,11.13
2023-05-06T15:14:00.316Z,10.00
2023-05-06T15:16:20.950Z,10.50
2023-05-06T15:18:42.087Z,12.02
2023-05-06T15:20:46.309Z,10.85
2023-05-06T15:22:50.636Z,10.82
2023-05-06T15:24:52.207Z,10.38
2023-05-06T15:26:57.224Z,10.30
2023-05-06T15:28:58.779Z,9.55
2023-05-06T15:31:03.756Z,10.57
2023-05-06T15:33:23.591Z,10.48
2023-05-06T15:35:25.184Z,10.77
2023-05-06T15:37:29.262Z,10.00
2023-05-06T15:39:39.522Z,10.63
2023-05-06T15:41:41.081Z,11.93
2023-05-06T15:43:42.543Z,10.80
2023-05-06T15:45:46.772Z,11.10
2023-05-06T15:47:51.125Z,10.68
2023-05-06T15:49:54.834Z,11.13
2023-05-06T15:52:01.283Z,11.60
2023-05-06T15:54:06.515Z,12.13
2023-05-06T15:56:18.124Z,10.40
2023-05-06T15:58:23.796Z,11.73
2023-05-06T16:00:29.374Z,11.55
2023-05-06T16:02:33.920Z,10.88
2023-05-06T16:04:35.775Z,9.75
2023-05-06T16:06:40.085Z,11.23
2023-05-06T16:08:44.382Z,10.73
2023-05-06T16:10:48.811Z,11.32
2023-05-06T16:12:53.911Z,11.80
2023-05-06T16:15:14.166Z,13.20
2023-05-06T16:17:15.850Z,10.57
2023-05-06T16:19:19.842Z,12.13
2023-05-06T16:21:21.608Z,10.80
2023-05-06T16:23:26.248Z,12.02
2023-05-06T16:25:29.576Z,11.23
2023-05-06T16:27:31.378Z,10.60
2023-05-06T16:29:51.415Z,10.65
2023-05-06T16:33:59.804Z,10.88
2023-05-06T16:36:04.487Z,10.25
2023-05-06T16:38:25.742Z,11.60
2023-05-06T16:40:31.130Z,10.02
2023-05-06T16:42:35.764Z,10.32
2023-05-06T16:44:37.627Z,10.13
2023-05-06T16:46:44.037Z,9.68
2023-05-06T16:48:48.736Z,10.07
2023-05-06T16:50:53.436Z,9.85
2023-05-06T16:52:55.025Z,10.25
2023-05-06T16:54:59.641Z,8.30
2023-05-06T16:57:01.588Z,8.90
2023-05-06T16:59:03.204Z,9.23
2023-05-06T17:01:08.122Z,9.25
2023-05-06T17:03:10.039Z,8.55
2023-05-06T17:05:11.808Z,10.40
2023-05-06T17:07:13.221Z,7.68
2023-05-06T17:09:15.579Z,7.43
2023-05-06T17:11:17.163Z,8.20
2023-05-06T17:13:18.852Z,7.43
2023-05-06T17:15:23.490Z,6.45
2023-05-06T17:17:28.819Z,7.03
2023-05-06T17:19:33.530Z,5.93
2023-05-06T17:21:37.081Z,5.25
2023-05-06T17:23:39.277Z,5.50
2023-05-06T17:25:40.820Z,5.18
2023-05-06T17:27:45.083Z,5.75
2023-05-06T17:29:47.628Z,5.65
2023-05-06T17:31:51.217Z,5.82
2023-05-06T17:34:11.217Z,4.32
2023-05-06T17:36:15.012Z,4.55
2023-05-06T17:38:16.992Z,5.10
2023-05-06T17:40:21.099Z,4.28
2023-05-06T17:42:22.672Z,3.70
2023-05-06T17:44:27.062Z,3.40
2023-05-06T17:46:28.674Z,3.78
2023-05-06T17:48:32.847Z,4.15
2023-05-06T17:50:34.292Z,3.80
2023-05-06T17:52:35.754Z,4.07
2023-05-06T17:54:38.094Z,4.38
2023-05-06T17:56:39.549Z,4.25
2023-05-06T17:58:43.746Z,3.92
2023-05-06T18:00:45.446Z,4.28
2023-05-06T18:02:47.469Z,4.05
2023-05-06T18:04:49.021Z,4.00
2023-05-06T18:06:50.571Z,4.05
2023-05-06T18:08:54.900Z,4.45
2023-05-06T18:10:59.323Z,4.13
2023-05-06T18:13:03.872Z,3.15
2023-05-06T18:15:09.075Z,3.10
2023-05-06T18:17:13.850Z,2.88
2023-05-06T18:19:18.352Z,3.88
2023-05-06T18:21:23.130Z,3.83
2023-05-06T18:23:29.983Z,3.47
2023-05-06T18:25:31.500Z,3.60
2023-05-06T18:27:38.054Z,3.75
2023-05-06T18:29:39.919Z,3.17
2023-05-06T18:31:44.136Z,3.65
2023-05-06T18:33:45.763Z,3.30
2023-05-06T18:35:49.245Z,3.65
2023-05-06T18:37:52.631Z,4.03
2023-05-06T18:39:59.467Z,3.33
2023-05-06T18:42:04.280Z,4.03
2023-05-06T18:44:05.988Z,3.80
2023-05-06T18:46:07.462Z,4.35
2023-05-06T18:48:12.485Z,4.15
2023-05-06T18:50:15.348Z,4.30
2023-05-06T18:52:17.820Z,4.55
2023-05-06T18:54:22.098Z,5.45
2023-05-06T18:56:23.697Z,5.70
2023-05-06T18:58:27.942Z,5.25
2023-05-06T19:00:32.913Z,4.72
2023-05-06T19:02:35.200Z,7.10
2023-05-06T19:04:56.446Z,5.28
2023-05-06T19:06:58.330Z,6.60
2023-05-06T19:09:18.692Z,5.72
2023-05-06T19:11:23.166Z,6.07
2023-05-06T19:13:24.705Z,5.35
2023-05-06T19:15:29.441Z,4.32
2023-05-06T19:19:34.824Z,6.50
2023-05-06T19:21:40.803Z,5.75
2023-05-06T19:23:44.304Z,5.28
2023-05-06T19:25:48.267Z,5.32
2023-05-06T19:27:53.591Z,5.25
2023-05-06T19:29:57.578Z,4.43
2023-05-06T19:32:03.252Z,4.75
2023-05-06T19:34:07.121Z,4.07
2023-05-06T19:36:13.698Z,3.63
2023-05-06T19:38:17.502Z,3.55
2023-05-06T19:40:21.420Z,4.13
2023-05-06T19:42:25.155Z,4.57
2023-05-06T19:44:49.018Z,5.18
2023-05-06T19:46:55.026Z,5.80
2023-05-06T19:48:59.236Z,4.65
2023-05-06T19:51:03.918Z,4.63
2023-05-06T19:53:08.116Z,3.90
2023-05-06T19:55:12.858Z,4.57
2023-05-06T19:57:18.406Z,3.75
2023-05-06T19:59:19.914Z,4.47
2023-05-06T20:01:24.845Z,4.10
2023-05-06T20:03:26.491Z,4.10
2023-05-06T20:05:31.949Z,4.70
2023-05-06T20:07:37.523Z,4.57
2023-05-06T20:09:41.553Z,4.72
2023-05-06T20:11:43.218Z,5.05
2023-05-06T20:13:44.595Z,6.38
2023-05-06T20:15:46.292Z,6.18
2023-05-06T20:17:47.946Z,6.68
2023-05-06T20:19:49.738Z,6.75
2023-05-06T20:21:53.984Z,6.95
2023-05-06T20:23:57.989Z,8.05
2023-05-06T20:26:22.651Z,6.85
2023-05-06T20:28:26.879Z,7.07
2023-05-06T20:30:43.958Z,7.63
2023-05-06T20:32:53.849Z,7.13
2023-05-06T20:35:06.808Z,8.05
2023-05-06T20:37:22.290Z,7.32
2023-05-06T20:39:37.810Z,7.57
2023-05-06T20:41:51.696Z,8.38
2023-05-06T20:44:08.387Z,8.75
2023-05-06T20:46:25.741Z,8.65
2023-05-06T20:48:37.281Z,9.80
2023-05-06T20:50:52.471Z,10.23
2023-05-06T20:53:01.922Z,10.15
2023-05-06T20:55:11.729Z,9.50
2023-05-06T20:57:29.167Z,10.45
2023-05-06T20:59:42.342Z,10.15
2023-05-06T21:01:52.090Z,9.77
2023-05-06T21:03:58.834Z,10.65
2023-05-06T21:06:00.434Z,11.35
2023-05-06T21:08:01.860Z,10.40
2023-05-06T21:12:10.434Z,11.05
2023-05-06T21:14:12.375Z,12.20
2023-05-06T21:16:13.808Z,11.13
2023-05-06T21:18:18.481Z,11.23
2023-05-06T21:20:23.076Z,13.05
2023-05-06T21:22:27.368Z,11.40
2023-05-06T21:24:29.021Z,12.77
2023-05-06T21:26:30.809Z,13.63
2023-05-06T21:28:32.289Z,11.77
2023-05-06T21:32:38.053Z,12.55
2023-05-06T21:34:39.566Z,12.75
2023-05-06T21:36:42.273Z,12.68
2023-05-06T21:38:43.701Z,12.73
2023-05-06T21:40:45.141Z,13.95
2023-05-06T21:44:50.661Z,13.05
2023-05-06T21:46:55.216Z,13.23
2023-05-06T21:48:59.949Z,13.65
2023-05-06T21:51:04.655Z,14.15
2023-05-06T21:53:09.176Z,15.35
2023-05-06T21:55:11.423Z,14.07
2023-05-06T21:57:16.524Z,13.88
2023-05-06T21:59:20.728Z,13.00
2023-05-06T22:01:29.077Z,13.35
2023-05-06T22:03:30.709Z,14.52
2023-05-06T22:05:32.239Z,14.65
2023-05-06T22:07:33.835Z,15.25
2023-05-06T22:09:35.826Z,15.27
2023-05-06T22:11:38.308Z,15.40
2023-05-06T22:13:42.954Z,15.43
2023-05-06T22:15:47.283Z,15.25
2023-05-06T22:17:51.803Z,16.00
2023-05-06T22:19:54.497Z,14.50
2023-05-06T22:21:57.506Z,15.50
2023-05-06T22:23:58.969Z,15.52
2023-05-06T22:26:00.598Z,15.18
2023-05-06T22:28:02.337Z,16.15
2023-05-06T22:30:04.088Z,14.38
2023-05-06T22:32:05.993Z,15.18
2023-05-06T22:34:07.610Z,16.67
2023-05-06T22:38:13.058Z,17.88
2023-05-06T22:40:17.366Z,15.90
2023-05-06T22:42:22.052Z,15.68
2023-05-06T22:44:26.384Z,16.02
2023-05-06T22:46:30.852Z,14.65
2023-05-06T22:48:51.175Z,15.23
2023-05-06T22:50:56.383Z,15.55
2023-05-06T22:52:58.005Z,14.45
2023-05-06T22:54:59.561Z,13.88
2023-05-06T22:57:01.206Z,15.05
2023-05-06T22:59:02.742Z,15.35
2023-05-06T23:01:04.507Z,14.05
2023-05-06T23:03:09.611Z,14.32
2023-05-06T23:05:13.970Z,15.50
2023-05-06T23:07:18.441Z,14.52
2023-05-06T23:09:22.431Z,15.90
2023-05-06T23:11:23.928Z,15.85
2023-05-06T23:13:28.356Z,14.55
2023-05-06T23:15:29.883Z,13.73
2023-05-06T23:17:32.060Z,15.90
2023-05-06T23:19:36.388Z,15.35
2023-05-06T23:21:41.537Z,14.40
2023-05-06T23:23:49.161Z,15.88
2023-05-06T23:25:50.711Z,16.88
2023-05-06T23:27:52.178Z,16.27
2023-05-06T23:30:00.628Z,15.85
2023-05-06T23:32:03.923Z,15.75
2023-05-06T23:34:07.167Z,17.00
2023-05-06T23:36:08.812Z,15.48
2023-05-06T23:38:10.409Z,16.65
2023-05-06T23:40:13.951Z,15.18
2023-05-06T23:42:15.460Z,15.88
2023-05-06T23:44:19.957Z,16.63
2023-05-06T23:46:40.257Z,18.67
2023-05-06T23:48:46.708Z,15.23
2023-05-06T23:50:51.483Z,16.35
2023-05-06T23:52:56.791Z,17.35
2023-05-06T23:55:17.042Z,17.85
2023-05-06T23:57:21.762Z,16.67
2023-05-06T23:59:26.234Z,15.60
